sensor_id;sensor_type;location;lat;lon;timestamp;temperature;humidity
60860;DHT22;46694;54.382;9.708;2023-04-25T00:00:32;8.10;99.90
60860;DHT22;46694;54.382;9.708;2023-04-25T00:03:12;8.10;99.90
60860;DHT22;46694;54.382;9.708;2023-04-25T00:05:51;8.10;99.90
60860;DHT22;46694;54.382;9.708;2023-04-25T00:08:31;8.10;99.90
60860;DHT22;46694;54.382;9.708;2023-04-25T00:11:10;8.10;99.90
60860;DHT22;46694;54.382;9.708;2023-04-25T00:13:50;8.10;99.90
60860;DHT22;46694;54.382;9.708;2023-04-25T00:16:30;8.00;99.90
60860;DHT22;46694;54.382;9.708;2023-04-25T00:19:12;8.00;99.90
60860;DHT22;46694;54.382;9.708;2023-04-25T00:21:52;7.90;99.90
60860;DHT22;46694;54.382;9.708;2023-04-25T00:24:32;7.80;99.90
60860;DHT22;46694;54.382;9.708;2023-04-25T00:27:11;7.80;99.90
60860;DHT22;46694;54.382;9.708;2023-04-25T00:29:51;7.70;99.90
60860;DHT22;46694;54.382;9.708;2023-04-25T00:32:31;7.70;99.90
60860;DHT22;46694;54.382;9.708;2023-04-25T00:35:10;7.70;99.90
60860;DHT22;46694;54.382;9.708;2023-04-25T00:37:50;7.70;99.90
60860;DHT22;46694;54.382;9.708;2023-04-25T00:40:29;7.70;99.90
60860;DHT22;46694;54.382;9.708;2023-04-25T00:43:09;7.70;99.90
60860;DHT22;46694;54.382;9.708;2023-04-25T00:45:48;7.70;99.90
60860;DHT22;46694;54.382;9.708;2023-04-25T00:48:29;7.60;99.90
60860;DHT22;46694;54.382;9.708;2023-04-25T00:51:16;7.60;99.90
60860;DHT22;46694;54.382;9.708;2023-04-25T00:53:59;7.50;99.90
60860;DHT22;46694;54.382;9.708;2023-04-25T00:56:39;7.50;99.90
60860;DHT22;46694;54.382;9.708;2023-04-25T00:59:19;7.40;99.90
60860;DHT22;46694;54.382;9.708;2023-04-25T01:01:59;7.40;99.90
60860;DHT22;46694;54.382;9.708;2023-04-25T01:04:39;7.40;99.90
60860;DHT22;46694;54.382;9.708;2023-04-25T01:07:19;7.30;99.90
60860;DHT22;46694;54.382;9.708;2023-04-25T01:09:59;7.30;99.90
60860;DHT22;46694;54.382;9.708;2023-04-25T01:12:38;7.20;99.90
60860;DHT22;46694;54.382;9.708;2023-04-25T01:15:18;7.10;99.90
60860;DHT22;46694;54.382;9.708;2023-04-25T01:17:58;7.10;99.90
60860;DHT22;46694;54.382;9.708;2023-04-25T01:20:41;7.00;99.90
60860;DHT22;46694;54.382;9.708;2023-04-25T01:23:21;7.00;99.90
60860;DHT22;46694;54.382;9.708;2023-04-25T01:26:01;7.00;99.90
60860;DHT22;46694;54.382;9.708;2023-04-25T01:28:41;6.90;99.90
60860;DHT22;46694;54.382;9.708;2023-04-25T01:31:21;6.80;99.90
60860;DHT22;46694;54.382;9.708;2023-04-25T01:34:01;6.80;99.90
60860;DHT22;46694;54.382;9.708;2023-04-25T01:36:40;6.80;99.90
60860;DHT22;46694;54.382;9.708;2023-04-25T01:39:20;6.80;99.90
60860;DHT22;46694;54.382;9.708;2023-04-25T01:42:00;6.80;99.90
60860;DHT22;46694;54.382;9.708;2023-04-25T01:44:40;6.80;99.90
60860;DHT22;46694;54.382;9.708;2023-04-25T01:47:20;6.80;99.90
60860;DHT22;46694;54.382;9.708;2023-04-25T01:49:59;6.80;99.90
60860;DHT22;46694;54.382;9.708;2023-04-25T01:52:39;6.70;99.90
60860;DHT22;46694;54.382;9.708;2023-04-25T01:55:19;6.70;99.90
60860;DHT22;46694;54.382;9.708;2023-04-25T01:57:58;6.70;99.90
60860;DHT22;46694;54.382;9.708;2023-04-25T02:00:39;6.70;99.90
60860;DHT22;46694;54.382;9.708;2023-04-25T02:03:20;6.70;99.90
60860;DHT22;46694;54.382;9.708;2023-04-25T02:05:59;6.70;99.90
60860;DHT22;46694;54.382;9.708;2023-04-25T02:08:39;6.60;99.90
60860;DHT22;46694;54.382;9.708;2023-04-25T02:11:18;6.70;99.90
60860;DHT22;46694;54.382;9.708;2023-04-25T02:13:59;6.70;99.90
60860;DHT22;46694;54.382;9.708;2023-04-25T02:16:39;6.70;99.90
60860;DHT22;46694;54.382;9.708;2023-04-25T02:19:19;6.70;99.90
60860;DHT22;46694;54.382;9.708;2023-04-25T02:21:58;6.70;99.90
60860;DHT22;46694;54.382;9.708;2023-04-25T02:24:38;6.70;99.90
60860;DHT22;46694;54.382;9.708;2023-04-25T02:27:18;6.80;99.90
60860;DHT22;46694;54.382;9.708;2023-04-25T02:29:57;6.80;99.90
60860;DHT22;46694;54.382;9.708;2023-04-25T02:32:38;6.80;99.90
60860;DHT22;46694;54.382;9.708;2023-04-25T02:35:18;6.80;99.90
60860;DHT22;46694;54.382;9.708;2023-04-25T02:37:57;6.80;99.90
60860;DHT22;46694;54.382;9.708;2023-04-25T02:40:37;6.80;99.90
60860;DHT22;46694;54.382;9.708;2023-04-25T02:43:16;6.80;99.90
60860;DHT22;46694;54.382;9.708;2023-04-25T02:45:56;6.80;99.90
60860;DHT22;46694;54.382;9.708;2023-04-25T02:48:35;6.80;99.90
60860;DHT22;46694;54.382;9.708;2023-04-25T02:51:15;6.80;99.90
60860;DHT22;46694;54.382;9.708;2023-04-25T02:53:55;6.80;99.90
60860;DHT22;46694;54.382;9.708;2023-04-25T02:56:35;6.70;99.90
60860;DHT22;46694;54.382;9.708;2023-04-25T02:59:14;6.70;99.90
60860;DHT22;46694;54.382;9.708;2023-04-25T03:01:54;6.70;99.90
60860;DHT22;46694;54.382;9.708;2023-04-25T03:04:34;6.70;99.90
60860;DHT22;46694;54.382;9.708;2023-04-25T03:07:13;6.70;99.90
60860;DHT22;46694;54.382;9.708;2023-04-25T03:09:53;6.70;99.90
60860;DHT22;46694;54.382;9.708;2023-04-25T03:12:32;6.70;99.90
60860;DHT22;46694;54.382;9.708;2023-04-25T03:15:12;6.70;99.90
60860;DHT22;46694;54.382;9.708;2023-04-25T03:17:52;6.70;99.90
60860;DHT22;46694;54.382;9.708;2023-04-25T03:20:31;6.70;99.90
60860;DHT22;46694;54.382;9.708;2023-04-25T03:23:11;6.70;99.90
60860;DHT22;46694;54.382;9.708;2023-04-25T03:25:50;6.60;99.90
60860;DHT22;46694;54.382;9.708;2023-04-25T03:28:30;6.60;99.90
60860;DHT22;46694;54.382;9.708;2023-04-25T03:31:10;6.60;99.90
60860;DHT22;46694;54.382;9.708;2023-04-25T03:33:49;6.70;99.90
60860;DHT22;46694;54.382;9.708;2023-04-25T03:36:29;6.70;99.90
60860;DHT22;46694;54.382;9.708;2023-04-25T03:39:08;6.70;99.90
60860;DHT22;46694;54.382;9.708;2023-04-25T03:41:48;6.70;99.90
60860;DHT22;46694;54.382;9.708;2023-04-25T03:44:28;6.70;99.90
60860;DHT22;46694;54.382;9.708;2023-04-25T03:47:07;6.70;99.90
60860;DHT22;46694;54.382;9.708;2023-04-25T03:49:47;6.70;99.90
60860;DHT22;46694;54.382;9.708;2023-04-25T03:52:28;6.70;99.90
60860;DHT22;46694;54.382;9.708;2023-04-25T03:55:08;6.60;99.90
60860;DHT22;46694;54.382;9.708;2023-04-25T03:57:48;6.60;99.90
60860;DHT22;46694;54.382;9.708;2023-04-25T04:00:27;6.60;99.90
60860;DHT22;46694;54.382;9.708;2023-04-25T04:03:07;6.60;99.90
60860;DHT22;46694;54.382;9.708;2023-04-25T04:05:47;6.60;99.90
60860;DHT22;46694;54.382;9.708;2023-04-25T04:08:26;6.60;99.90
60860;DHT22;46694;54.382;9.708;2023-04-25T04:11:06;6.70;99.90
60860;DHT22;46694;54.382;9.708;2023-04-25T04:13:45;6.70;99.90
60860;DHT22;46694;54.382;9.708;2023-04-25T04:16:25;6.70;99.90
60860;DHT22;46694;54.382;9.708;2023-04-25T04:19:05;6.70;99.90
60860;DHT22;46694;54.382;9.708;2023-04-25T04:21:44;6.70;99.90
60860;DHT22;46694;54.382;9.708;2023-04-25T04:24:24;6.70;99.90
60860;DHT22;46694;54.382;9.708;2023-04-25T04:27:03;6.70;99.90
60860;DHT22;46694;54.382;9.708;2023-04-25T04:29:43;6.70;99.90
60860;DHT22;46694;54.382;9.708;2023-04-25T04:32:23;6.70;99.90
60860;DHT22;46694;54.382;9.708;2023-04-25T04:35:03;6.70;99.90
60860;DHT22;46694;54.382;9.708;2023-04-25T04:37:43;6.70;99.90
60860;DHT22;46694;54.382;9.708;2023-04-25T04:40:24;6.70;99.90
60860;DHT22;46694;54.382;9.708;2023-04-25T04:43:04;6.70;99.90
60860;DHT22;46694;54.382;9.708;2023-04-25T04:45:43;6.70;99.90
60860;DHT22;46694;54.382;9.708;2023-04-25T04:48:23;6.70;99.90
60860;DHT22;46694;54.382;9.708;2023-04-25T04:51:03;6.70;99.90
60860;DHT22;46694;54.382;9.708;2023-04-25T04:53:42;6.70;99.90
60860;DHT22;46694;54.382;9.708;2023-04-25T04:56:22;6.70;99.90
60860;DHT22;46694;54.382;9.708;2023-04-25T04:59:02;6.70;99.90
60860;DHT22;46694;54.382;9.708;2023-04-25T05:01:41;6.70;99.90
60860;DHT22;46694;54.382;9.708;2023-04-25T05:04:21;6.70;99.90
60860;DHT22;46694;54.382;9.708;2023-04-25T05:07:01;6.70;99.90
60860;DHT22;46694;54.382;9.708;2023-04-25T05:09:40;6.80;99.90
60860;DHT22;46694;54.382;9.708;2023-04-25T05:12:20;6.80;99.90
60860;DHT22;46694;54.382;9.708;2023-04-25T05:14:59;6.80;99.90
60860;DHT22;46694;54.382;9.708;2023-04-25T05:17:39;6.80;99.90
60860;DHT22;46694;54.382;9.708;2023-04-25T05:20:19;6.90;99.90
60860;DHT22;46694;54.382;9.708;2023-04-25T05:22:58;7.00;99.90
60860;DHT22;46694;54.382;9.708;2023-04-25T05:25:39;7.00;99.90
60860;DHT22;46694;54.382;9.708;2023-04-25T05:28:18;7.00;99.90
60860;DHT22;46694;54.382;9.708;2023-04-25T05:30:58;7.10;99.90
60860;DHT22;46694;54.382;9.708;2023-04-25T05:33:37;7.10;99.90
60860;DHT22;46694;54.382;9.708;2023-04-25T05:36:18;7.20;99.90
60860;DHT22;46694;54.382;9.708;2023-04-25T05:38:58;7.10;99.90
60860;DHT22;46694;54.382;9.708;2023-04-25T05:41:38;7.10;99.90
60860;DHT22;46694;54.382;9.708;2023-04-25T05:44:18;7.10;99.90
60860;DHT22;46694;54.382;9.708;2023-04-25T05:46:58;7.10;99.90
60860;DHT22;46694;54.382;9.708;2023-04-25T05:49:38;7.10;99.90
60860;DHT22;46694;54.382;9.708;2023-04-25T05:52:17;7.20;99.90
60860;DHT22;46694;54.382;9.708;2023-04-25T05:54:57;7.20;99.90
60860;DHT22;46694;54.382;9.708;2023-04-25T05:57:36;7.20;99.90
60860;DHT22;46694;54.382;9.708;2023-04-25T06:00:16;7.20;99.90
60860;DHT22;46694;54.382;9.708;2023-04-25T06:02:55;7.30;99.90
60860;DHT22;46694;54.382;9.708;2023-04-25T06:05:36;7.30;99.90
60860;DHT22;46694;54.382;9.708;2023-04-25T06:08:15;7.40;99.90
60860;DHT22;46694;54.382;9.708;2023-04-25T06:10:54;7.50;99.90
60860;DHT22;46694;54.382;9.708;2023-04-25T06:13:34;7.50;99.90
60860;DHT22;46694;54.382;9.708;2023-04-25T06:16:13;7.60;99.90
60860;DHT22;46694;54.382;9.708;2023-04-25T06:18:53;7.60;99.90
60860;DHT22;46694;54.382;9.708;2023-04-25T06:21:32;7.60;99.90
60860;DHT22;46694;54.382;9.708;2023-04-25T06:24:12;7.60;99.90
60860;DHT22;46694;54.382;9.708;2023-04-25T06:26:51;7.50;99.90
60860;DHT22;46694;54.382;9.708;2023-04-25T06:29:32;7.60;99.90
60860;DHT22;46694;54.382;9.708;2023-04-25T06:32:11;7.60;99.90
60860;DHT22;46694;54.382;9.708;2023-04-25T06:34:50;7.60;99.90
60860;DHT22;46694;54.382;9.708;2023-04-25T06:37:31;7.70;99.90
60860;DHT22;46694;54.382;9.708;2023-04-25T06:40:10;7.60;99.90
60860;DHT22;46694;54.382;9.708;2023-04-25T06:42:50;7.70;99.90
60860;DHT22;46694;54.382;9.708;2023-04-25T06:45:29;7.70;99.90
60860;DHT22;46694;54.382;9.708;2023-04-25T06:48:09;7.70;99.90
60860;DHT22;46694;54.382;9.708;2023-04-25T06:50:48;7.70;99.90
60860;DHT22;46694;54.382;9.708;2023-04-25T06:53:28;7.70;99.90
60860;DHT22;46694;54.382;9.708;2023-04-25T06:56:08;7.70;99.90
60860;DHT22;46694;54.382;9.708;2023-04-25T06:58:47;7.70;99.90
60860;DHT22;46694;54.382;9.708;2023-04-25T07:01:28;7.60;99.90
60860;DHT22;46694;54.382;9.708;2023-04-25T07:04:07;7.50;99.90
60860;DHT22;46694;54.382;9.708;2023-04-25T07:06:47;7.50;99.90
60860;DHT22;46694;54.382;9.708;2023-04-25T07:09:27;7.50;99.90
60860;DHT22;46694;54.382;9.708;2023-04-25T07:12:06;7.50;99.90
60860;DHT22;46694;54.382;9.708;2023-04-25T07:14:46;7.50;99.90
60860;DHT22;46694;54.382;9.708;2023-04-25T07:17:25;7.50;99.90
60860;DHT22;46694;54.382;9.708;2023-04-25T07:20:06;7.60;99.90
60860;DHT22;46694;54.382;9.708;2023-04-25T07:22:46;7.60;99.90
60860;DHT22;46694;54.382;9.708;2023-04-25T07:25:26;7.80;99.90
60860;DHT22;46694;54.382;9.708;2023-04-25T07:28:05;7.90;99.90
60860;DHT22;46694;54.382;9.708;2023-04-25T07:30:45;8.00;99.90
60860;DHT22;46694;54.382;9.708;2023-04-25T07:33:25;8.30;99.90
60860;DHT22;46694;54.382;9.708;2023-04-25T07:36:05;9.10;99.90
60860;DHT22;46694;54.382;9.708;2023-04-25T07:38:44;10.20;99.90
60860;DHT22;46694;54.382;9.708;2023-04-25T07:41:24;10.90;99.90
60860;DHT22;46694;54.382;9.708;2023-04-25T07:44:04;11.10;99.90
60860;DHT22;46694;54.382;9.708;2023-04-25T07:46:43;10.90;99.90
60860;DHT22;46694;54.382;9.708;2023-04-25T07:49:23;10.50;99.90
60860;DHT22;46694;54.382;9.708;2023-04-25T07:52:03;10.10;99.90
60860;DHT22;46694;54.382;9.708;2023-04-25T07:54:44;9.70;99.90
60860;DHT22;46694;54.382;9.708;2023-04-25T07:57:24;9.50;99.90
60860;DHT22;46694;54.382;9.708;2023-04-25T08:00:04;9.30;99.90
60860;DHT22;46694;54.382;9.708;2023-04-25T08:02:48;9.10;99.90
60860;DHT22;46694;54.382;9.708;2023-04-25T08:05:29;9.00;99.90
60860;DHT22;46694;54.382;9.708;2023-04-25T08:08:09;9.00;99.90
60860;DHT22;46694;54.382;9.708;2023-04-25T08:10:49;9.00;99.90
60860;DHT22;46694;54.382;9.708;2023-04-25T08:13:28;9.10;99.90
60860;DHT22;46694;54.382;9.708;2023-04-25T08:16:08;9.20;99.90
60860;DHT22;46694;54.382;9.708;2023-04-25T08:18:48;9.40;99.90
60860;DHT22;46694;54.382;9.708;2023-04-25T08:21:29;9.60;99.90
60860;DHT22;46694;54.382;9.708;2023-04-25T08:24:08;9.70;99.90
60860;DHT22;46694;54.382;9.708;2023-04-25T08:26:48;9.50;99.90
60860;DHT22;46694;54.382;9.708;2023-04-25T08:29:28;9.20;99.90
60860;DHT22;46694;54.382;9.708;2023-04-25T08:32:08;9.00;99.90
60860;DHT22;46694;54.382;9.708;2023-04-25T08:34:47;8.90;99.90
60860;DHT22;46694;54.382;9.708;2023-04-25T08:37:27;8.90;99.90
60860;DHT22;46694;54.382;9.708;2023-04-25T08:40:11;9.00;99.90
60860;DHT22;46694;54.382;9.708;2023-04-25T08:42:53;9.20;99.90
60860;DHT22;46694;54.382;9.708;2023-04-25T08:45:33;9.30;99.90
60860;DHT22;46694;54.382;9.708;2023-04-25T08:48:16;9.30;99.90
60860;DHT22;46694;54.382;9.708;2023-04-25T08:50:56;9.30;99.90
60860;DHT22;46694;54.382;9.708;2023-04-25T08:53:35;9.30;99.90
60860;DHT22;46694;54.382;9.708;2023-04-25T08:56:16;9.40;99.90
60860;DHT22;46694;54.382;9.708;2023-04-25T08:59:01;9.60;99.90
60860;DHT22;46694;54.382;9.708;2023-04-25T09:01:41;9.70;99.90
60860;DHT22;46694;54.382;9.708;2023-04-25T09:04:21;10.10;99.90
60860;DHT22;46694;54.382;9.708;2023-04-25T09:07:01;10.30;99.90
60860;DHT22;46694;54.382;9.708;2023-04-25T09:09:40;10.60;99.90
60860;DHT22;46694;54.382;9.708;2023-04-25T09:12:20;10.80;99.90
60860;DHT22;46694;54.382;9.708;2023-04-25T09:15:09;10.90;99.90
60860;DHT22;46694;54.382;9.708;2023-04-25T09:17:56;11.10;99.90
60860;DHT22;46694;54.382;9.708;2023-04-25T09:20:42;11.00;99.90
60860;DHT22;46694;54.382;9.708;2023-04-25T09:23:24;11.00;99.90
60860;DHT22;46694;54.382;9.708;2023-04-25T09:26:07;11.00;99.90
60860;DHT22;46694;54.382;9.708;2023-04-25T09:28:46;11.10;99.90
60860;DHT22;46694;54.382;9.708;2023-04-25T09:31:29;11.20;99.90
60860;DHT22;46694;54.382;9.708;2023-04-25T09:34:12;11.30;99.90
60860;DHT22;46694;54.382;9.708;2023-04-25T09:36:54;11.70;99.90
60860;DHT22;46694;54.382;9.708;2023-04-25T09:39:34;11.70;99.90
60860;DHT22;46694;54.382;9.708;2023-04-25T09:42:14;11.40;99.90
60860;DHT22;46694;54.382;9.708;2023-04-25T09:44:56;11.00;99.90
60860;DHT22;46694;54.382;9.708;2023-04-25T09:47:37;10.50;99.90
60860;DHT22;46694;54.382;9.708;2023-04-25T09:50:17;10.20;99.90
60860;DHT22;46694;54.382;9.708;2023-04-25T09:53:04;10.30;99.90
60860;DHT22;46694;54.382;9.708;2023-04-25T09:55:47;10.80;99.90
60860;DHT22;46694;54.382;9.708;2023-04-25T09:58:29;11.60;99.90
60860;DHT22;46694;54.382;9.708;2023-04-25T10:01:10;12.20;99.90
60860;DHT22;46694;54.382;9.708;2023-04-25T10:03:50;12.50;99.90
60860;DHT22;46694;54.382;9.708;2023-04-25T10:06:30;12.30;99.90
60860;DHT22;46694;54.382;9.708;2023-04-25T10:09:12;11.90;99.90
60860;DHT22;46694;54.382;9.708;2023-04-25T10:11:53;11.20;99.90
60860;DHT22;46694;54.382;9.708;2023-04-25T10:14:34;10.70;99.90
60860;DHT22;46694;54.382;9.708;2023-04-25T10:17:14;10.50;99.90
60860;DHT22;46694;54.382;9.708;2023-04-25T10:19:54;10.50;99.90
60860;DHT22;46694;54.382;9.708;2023-04-25T10:22:37;10.70;99.90
60860;DHT22;46694;54.382;9.708;2023-04-25T10:25:19;10.70;99.90
60860;DHT22;46694;54.382;9.708;2023-04-25T10:28:00;10.80;99.90
60860;DHT22;46694;54.382;9.708;2023-04-25T10:31:04;10.90;99.90
60860;DHT22;46694;54.382;9.708;2023-04-25T10:33:45;11.00;99.90
60860;DHT22;46694;54.382;9.708;2023-04-25T10:36:25;11.40;99.90
60860;DHT22;46694;54.382;9.708;2023-04-25T10:39:08;11.50;99.90
60860;DHT22;46694;54.382;9.708;2023-04-25T10:41:57;11.80;99.90
60860;DHT22;46694;54.382;9.708;2023-04-25T10:44:38;12.10;99.90
60860;DHT22;46694;54.382;9.708;2023-04-25T10:47:34;12.20;99.90
60860;DHT22;46694;54.382;9.708;2023-04-25T10:50:15;12.00;99.90
60860;DHT22;46694;54.382;9.708;2023-04-25T10:53:14;11.30;99.90
60860;DHT22;46694;54.382;9.708;2023-04-25T10:55:54;10.60;99.90
60860;DHT22;46694;54.382;9.708;2023-04-25T10:58:34;10.20;99.90
60860;DHT22;46694;54.382;9.708;2023-04-25T11:01:14;10.30;99.90
60860;DHT22;46694;54.382;9.708;2023-04-25T11:04:00;10.40;99.90
60860;DHT22;46694;54.382;9.708;2023-04-25T11:09:53;10.50;99.90
60860;DHT22;46694;54.382;9.708;2023-04-25T11:12:33;10.80;99.90
60860;DHT22;46694;54.382;9.708;2023-04-25T11:15:12;11.20;99.90
60860;DHT22;46694;54.382;9.708;2023-04-25T11:17:53;11.50;99.90
60860;DHT22;46694;54.382;9.708;2023-04-25T11:20:33;11.70;99.90
60860;DHT22;46694;54.382;9.708;2023-04-25T11:23:12;11.90;99.90
60860;DHT22;46694;54.382;9.708;2023-04-25T11:25:52;11.90;99.90
60860;DHT22;46694;54.382;9.708;2023-04-25T11:28:32;11.90;99.90
60860;DHT22;46694;54.382;9.708;2023-04-25T11:31:11;11.80;99.90
60860;DHT22;46694;54.382;9.708;2023-04-25T11:33:53;11.60;99.90
60860;DHT22;46694;54.382;9.708;2023-04-25T11:36:34;11.20;99.90
60860;DHT22;46694;54.382;9.708;2023-04-25T11:39:18;10.80;99.90
60860;DHT22;46694;54.382;9.708;2023-04-25T11:41:58;10.40;99.90
60860;DHT22;46694;54.382;9.708;2023-04-25T11:44:38;10.10;99.90
60860;DHT22;46694;54.382;9.708;2023-04-25T11:47:19;9.80;99.90
60860;DHT22;46694;54.382;9.708;2023-04-25T11:50:00;9.80;99.90
60860;DHT22;46694;54.382;9.708;2023-04-25T11:52:45;9.90;99.90
60860;DHT22;46694;54.382;9.708;2023-04-25T11:55:25;10.10;99.90
60860;DHT22;46694;54.382;9.708;2023-04-25T11:58:05;10.40;99.90
60860;DHT22;46694;54.382;9.708;2023-04-25T12:00:46;10.60;99.90
60860;DHT22;46694;54.382;9.708;2023-04-25T12:03:25;10.40;99.90
60860;DHT22;46694;54.382;9.708;2023-04-25T12:06:10;10.10;99.90
60860;DHT22;46694;54.382;9.708;2023-04-25T12:09:03;9.80;99.90
60860;DHT22;46694;54.382;9.708;2023-04-25T12:11:45;9.70;99.90
60860;DHT22;46694;54.382;9.708;2023-04-25T12:14:29;9.80;99.90
60860;DHT22;46694;54.382;9.708;2023-04-25T12:17:10;9.90;99.90
60860;DHT22;46694;54.382;9.708;2023-04-25T12:19:50;10.30;99.90
60860;DHT22;46694;54.382;9.708;2023-04-25T12:22:30;10.60;99.90
60860;DHT22;46694;54.382;9.708;2023-04-25T12:25:40;10.80;99.90
60860;DHT22;46694;54.382;9.708;2023-04-25T12:28:23;10.80;99.90
60860;DHT22;46694;54.382;9.708;2023-04-25T12:31:05;10.60;99.90
60860;DHT22;46694;54.382;9.708;2023-04-25T12:33:45;10.10;99.90
60860;DHT22;46694;54.382;9.708;2023-04-25T12:36:26;9.60;99.90
60860;DHT22;46694;54.382;9.708;2023-04-25T12:39:06;9.30;99.90
60860;DHT22;46694;54.382;9.708;2023-04-25T12:41:46;9.30;99.90
60860;DHT22;46694;54.382;9.708;2023-04-25T12:44:26;9.40;99.90
60860;DHT22;46694;54.382;9.708;2023-04-25T12:47:06;9.60;99.90
60860;DHT22;46694;54.382;9.708;2023-04-25T12:49:45;9.70;99.90
60860;DHT22;46694;54.382;9.708;2023-04-25T12:52:25;9.70;99.90
60860;DHT22;46694;54.382;9.708;2023-04-25T12:55:05;9.80;99.90
60860;DHT22;46694;54.382;9.708;2023-04-25T12:57:45;9.90;99.90
60860;DHT22;46694;54.382;9.708;2023-04-25T13:00:24;9.90;99.90
60860;DHT22;46694;54.382;9.708;2023-04-25T13:03:05;10.00;99.90
60860;DHT22;46694;54.382;9.708;2023-04-25T13:05:45;10.10;99.90
60860;DHT22;46694;54.382;9.708;2023-04-25T13:08:24;10.30;99.90
60860;DHT22;46694;54.382;9.708;2023-04-25T13:11:06;10.40;99.90
60860;DHT22;46694;54.382;9.708;2023-04-25T13:13:45;10.50;99.90
60860;DHT22;46694;54.382;9.708;2023-04-25T13:16:25;10.70;99.90
60860;DHT22;46694;54.382;9.708;2023-04-25T13:19:04;10.90;99.90
60860;DHT22;46694;54.382;9.708;2023-04-25T13:21:46;10.90;99.90
60860;DHT22;46694;54.382;9.708;2023-04-25T13:24:26;10.80;99.90
60860;DHT22;46694;54.382;9.708;2023-04-25T13:27:05;10.80;99.90
60860;DHT22;46694;54.382;9.708;2023-04-25T13:29:45;11.00;99.90
60860;DHT22;46694;54.382;9.708;2023-04-25T13:32:25;11.20;99.90
60860;DHT22;46694;54.382;9.708;2023-04-25T13:35:06;11.30;99.90
60860;DHT22;46694;54.382;9.708;2023-04-25T13:37:48;11.20;99.90
60860;DHT22;46694;54.382;9.708;2023-04-25T13:40:28;11.30;99.90
60860;DHT22;46694;54.382;9.708;2023-04-25T13:43:07;11.40;99.90
60860;DHT22;46694;54.382;9.708;2023-04-25T13:45:48;11.50;99.90
60860;DHT22;46694;54.382;9.708;2023-04-25T13:48:33;11.50;99.90
60860;DHT22;46694;54.382;9.708;2023-04-25T13:51:13;11.30;99.90
60860;DHT22;46694;54.382;9.708;2023-04-25T13:53:54;11.20;99.90
60860;DHT22;46694;54.382;9.708;2023-04-25T13:56:34;11.10;99.90
60860;DHT22;46694;54.382;9.708;2023-04-25T13:59:14;10.90;99.90
60860;DHT22;46694;54.382;9.708;2023-04-25T14:01:53;10.50;99.90
60860;DHT22;46694;54.382;9.708;2023-04-25T14:04:33;9.90;99.90
60860;DHT22;46694;54.382;9.708;2023-04-25T14:07:13;9.30;99.90
60860;DHT22;46694;54.382;9.708;2023-04-25T14:09:55;8.80;99.90
60860;DHT22;46694;54.382;9.708;2023-04-25T14:12:36;8.40;99.90
60860;DHT22;46694;54.382;9.708;2023-04-25T14:15:15;8.40;99.90
60860;DHT22;46694;54.382;9.708;2023-04-25T14:17:54;8.40;99.90
60860;DHT22;46694;54.382;9.708;2023-04-25T14:20:34;8.40;99.90
60860;DHT22;46694;54.382;9.708;2023-04-25T14:23:14;8.50;99.90
60860;DHT22;46694;54.382;9.708;2023-04-25T14:25:54;8.50;99.90
60860;DHT22;46694;54.382;9.708;2023-04-25T14:28:34;8.70;99.90
60860;DHT22;46694;54.382;9.708;2023-04-25T14:31:13;8.80;99.90
60860;DHT22;46694;54.382;9.708;2023-04-25T14:33:53;9.10;99.90
60860;DHT22;46694;54.382;9.708;2023-04-25T14:36:33;9.20;99.90
60860;DHT22;46694;54.382;9.708;2023-04-25T14:39:12;9.30;99.90
60860;DHT22;46694;54.382;9.708;2023-04-25T14:41:53;9.30;99.90
60860;DHT22;46694;54.382;9.708;2023-04-25T14:44:32;9.20;99.90
60860;DHT22;46694;54.382;9.708;2023-04-25T14:47:12;9.40;99.90
60860;DHT22;46694;54.382;9.708;2023-04-25T14:49:51;9.60;99.90
60860;DHT22;46694;54.382;9.708;2023-04-25T14:52:33;9.80;99.90
60860;DHT22;46694;54.382;9.708;2023-04-25T14:55:12;9.90;99.90
60860;DHT22;46694;54.382;9.708;2023-04-25T14:57:53;10.30;99.90
60860;DHT22;46694;54.382;9.708;2023-04-25T15:00:34;10.60;99.90
60860;DHT22;46694;54.382;9.708;2023-04-25T15:03:14;10.60;99.90
60860;DHT22;46694;54.382;9.708;2023-04-25T15:05:55;10.60;99.90
60860;DHT22;46694;54.382;9.708;2023-04-25T15:08:34;10.60;99.90
60860;DHT22;46694;54.382;9.708;2023-04-25T15:11:15;10.50;99.90
60860;DHT22;46694;54.382;9.708;2023-04-25T15:13:54;10.30;99.90
60860;DHT22;46694;54.382;9.708;2023-04-25T15:16:34;10.20;99.90
60860;DHT22;46694;54.382;9.708;2023-04-25T15:19:14;10.10;99.90
60860;DHT22;46694;54.382;9.708;2023-04-25T15:21:53;10.10;99.90
60860;DHT22;46694;54.382;9.708;2023-04-25T15:24:34;10.20;99.90
60860;DHT22;46694;54.382;9.708;2023-04-25T15:27:15;10.30;99.90
60860;DHT22;46694;54.382;9.708;2023-04-25T15:29:54;10.30;99.90
60860;DHT22;46694;54.382;9.708;2023-04-25T15:32:34;10.30;99.90
60860;DHT22;46694;54.382;9.708;2023-04-25T15:35:14;10.20;99.90
60860;DHT22;46694;54.382;9.708;2023-04-25T15:37:56;10.00;99.90
60860;DHT22;46694;54.382;9.708;2023-04-25T15:40:36;9.80;99.90
60860;DHT22;46694;54.382;9.708;2023-04-25T15:43:15;9.50;99.90
60860;DHT22;46694;54.382;9.708;2023-04-25T15:45:55;9.40;99.90
60860;DHT22;46694;54.382;9.708;2023-04-25T15:48:35;9.20;99.90
60860;DHT22;46694;54.382;9.708;2023-04-25T15:51:14;9.10;99.90
60860;DHT22;46694;54.382;9.708;2023-04-25T15:53:55;9.00;99.90
60860;DHT22;46694;54.382;9.708;2023-04-25T15:56:34;9.00;99.90
60860;DHT22;46694;54.382;9.708;2023-04-25T15:59:14;8.90;99.90
60860;DHT22;46694;54.382;9.708;2023-04-25T16:01:54;8.80;99.90
60860;DHT22;46694;54.382;9.708;2023-04-25T16:04:35;8.50;99.90
60860;DHT22;46694;54.382;9.708;2023-04-25T16:07:15;8.30;99.90
60860;DHT22;46694;54.382;9.708;2023-04-25T16:09:55;8.00;99.90
60860;DHT22;46694;54.382;9.708;2023-04-25T16:12:35;7.70;99.90
60860;DHT22;46694;54.382;9.708;2023-04-25T16:15:15;7.60;99.90
60860;DHT22;46694;54.382;9.708;2023-04-25T16:17:55;7.60;99.90
60860;DHT22;46694;54.382;9.708;2023-04-25T16:20:35;7.60;99.90
60860;DHT22;46694;54.382;9.708;2023-04-25T16:23:14;7.70;99.90
60860;DHT22;46694;54.382;9.708;2023-04-25T16:25:54;7.80;99.90
60860;DHT22;46694;54.382;9.708;2023-04-25T16:28:33;7.90;99.90
60860;DHT22;46694;54.382;9.708;2023-04-25T16:31:14;7.90;99.90
60860;DHT22;46694;54.382;9.708;2023-04-25T16:33:54;8.10;99.90
60860;DHT22;46694;54.382;9.708;2023-04-25T16:36:34;8.10;99.90
60860;DHT22;46694;54.382;9.708;2023-04-25T16:39:13;8.20;99.90
60860;DHT22;46694;54.382;9.708;2023-04-25T16:41:53;8.20;99.90
60860;DHT22;46694;54.382;9.708;2023-04-25T16:44:33;8.20;99.90
60860;DHT22;46694;54.382;9.708;2023-04-25T16:47:13;8.20;99.90
60860;DHT22;46694;54.382;9.708;2023-04-25T16:49:52;8.20;99.90
60860;DHT22;46694;54.382;9.708;2023-04-25T16:52:32;8.20;99.90
60860;DHT22;46694;54.382;9.708;2023-04-25T16:55:12;8.10;99.90
60860;DHT22;46694;54.382;9.708;2023-04-25T16:57:51;8.20;99.90
60860;DHT22;46694;54.382;9.708;2023-04-25T17:00:31;8.20;99.90
60860;DHT22;46694;54.382;9.708;2023-04-25T17:03:10;8.20;99.90
60860;DHT22;46694;54.382;9.708;2023-04-25T17:05:50;8.10;99.90
60860;DHT22;46694;54.382;9.708;2023-04-25T17:08:29;8.10;99.90